sensor_id;sensor_type;location;lat;lon;timestamp;P1;durP1;ratioP1;P2;durP2;ratioP2
52858;SDS011;38721;53.098;6.596;2022-09-17T00:01:13;20.40;;;4.57;;
52858;SDS011;38721;53.098;6.596;2022-09-17T00:03:47;20.10;;;4.35;;
52858;SDS011;38721;53.098;6.596;2022-09-17T00:08:45;13.63;;;2.25;;
52858;SDS011;38721;53.098;6.596;2022-09-17T00:11:12;8.93;;;2.35;;
52858;SDS011;38721;53.098;6.596;2022-09-17T00:13:45;16.77;;;3.20;;
52858;SDS011;38721;53.098;6.596;2022-09-17T00:16:12;15.30;;;2.90;;
52858;SDS011;38721;53.098;6.596;2022-09-17T00:18:45;21.83;;;2.45;;
52858;SDS011;38721;53.098;6.596;2022-09-17T00:21:15;11.20;;;2.55;;
52858;SDS011;38721;53.098;6.596;2022-09-17T00:23:44;16.77;;;3.25;;
52858;SDS011;38721;53.098;6.596;2022-09-17T00:26:11;23.05;;;3.28;;
52858;SDS011;38721;53.098;6.596;2022-09-17T00:28:37;15.85;;;3.13;;
52858;SDS011;38721;53.098;6.596;2022-09-17T00:31:07;13.07;;;2.70;;
52858;SDS011;38721;53.098;6.596;2022-09-17T00:33:39;16.23;;;2.70;;
52858;SDS011;38721;53.098;6.596;2022-09-17T00:36:07;13.70;;;3.03;;
52858;SDS011;38721;53.098;6.596;2022-09-17T00:41:08;7.07;;;1.90;;
52858;SDS011;38721;53.098;6.596;2022-09-17T00:48:54;8.10;;;1.80;;
52858;SDS011;38721;53.098;6.596;2022-09-17T00:51:26;8.55;;;2.05;;
52858;SDS011;38721;53.098;6.596;2022-09-17T00:53:57;10.32;;;2.05;;
52858;SDS011;38721;53.098;6.596;2022-09-17T00:56:26;11.88;;;2.53;;
52858;SDS011;38721;53.098;6.596;2022-09-17T00:58:55;9.40;;;2.33;;
52858;SDS011;38721;53.098;6.596;2022-09-17T01:01:22;11.52;;;2.10;;
52858;SDS011;38721;53.098;6.596;2022-09-17T01:03:48;11.30;;;2.08;;
52858;SDS011;38721;53.098;6.596;2022-09-17T01:06:17;8.80;;;2.10;;
52858;SDS011;38721;53.098;6.596;2022-09-17T01:08:59;10.68;;;2.25;;
52858;SDS011;38721;53.098;6.596;2022-09-17T01:14:30;6.97;;;2.07;;
52858;SDS011;38721;53.098;6.596;2022-09-17T01:29:27;14.50;;;1.92;;
52858;SDS011;38721;53.098;6.596;2022-09-17T01:35:10;9.68;;;2.28;;
52858;SDS011;38721;53.098;6.596;2022-09-17T01:44:00;12.07;;;2.30;;
52858;SDS011;38721;53.098;6.596;2022-09-17T01:46:39;14.60;;;2.20;;
52858;SDS011;38721;53.098;6.596;2022-09-17T01:49:10;13.02;;;2.10;;
52858;SDS011;38721;53.098;6.596;2022-09-17T01:51:39;12.50;;;2.50;;
52858;SDS011;38721;53.098;6.596;2022-09-17T01:54:15;14.65;;;2.55;;
52858;SDS011;38721;53.098;6.596;2022-09-17T01:59:28;13.98;;;2.55;;
52858;SDS011;38721;53.098;6.596;2022-09-17T02:02:00;11.70;;;2.78;;
52858;SDS011;38721;53.098;6.596;2022-09-17T02:04:42;16.50;;;2.70;;
52858;SDS011;38721;53.098;6.596;2022-09-17T02:07:17;10.57;;;2.30;;
52858;SDS011;38721;53.098;6.596;2022-09-17T02:10:09;15.45;;;3.33;;
52858;SDS011;38721;53.098;6.596;2022-09-17T02:12:40;12.13;;;2.17;;
52858;SDS011;38721;53.098;6.596;2022-09-17T02:15:11;9.30;;;2.47;;
52858;SDS011;38721;53.098;6.596;2022-09-17T02:17:47;9.80;;;2.35;;
52858;SDS011;38721;53.098;6.596;2022-09-17T02:20:16;9.45;;;2.17;;
52858;SDS011;38721;53.098;6.596;2022-09-17T02:22:49;17.67;;;2.83;;
52858;SDS011;38721;53.098;6.596;2022-09-17T02:28:07;12.88;;;2.28;;
52858;SDS011;38721;53.098;6.596;2022-09-17T02:30:36;9.70;;;1.95;;
52858;SDS011;38721;53.098;6.596;2022-09-17T02:33:03;12.10;;;2.67;;
52858;SDS011;38721;53.098;6.596;2022-09-17T02:35:31;14.32;;;2.58;;
52858;SDS011;38721;53.098;6.596;2022-09-17T02:37:58;10.55;;;2.40;;
52858;SDS011;38721;53.098;6.596;2022-09-17T02:40:25;9.85;;;2.40;;
52858;SDS011;38721;53.098;6.596;2022-09-17T02:46:05;9.27;;;2.03;;
52858;SDS011;38721;53.098;6.596;2022-09-17T02:54:17;11.32;;;2.42;;
52858;SDS011;38721;53.098;6.596;2022-09-17T02:56:47;9.48;;;1.85;;
52858;SDS011;38721;53.098;6.596;2022-09-17T02:59:37;10.10;;;2.13;;
52858;SDS011;38721;53.098;6.596;2022-09-17T03:02:16;7.40;;;1.80;;
52858;SDS011;38721;53.098;6.596;2022-09-17T03:04:47;6.70;;;1.73;;
52858;SDS011;38721;53.098;6.596;2022-09-17T03:07:13;10.15;;;1.90;;
52858;SDS011;38721;53.098;6.596;2022-09-17T03:09:42;9.05;;;1.83;;
52858;SDS011;38721;53.098;6.596;2022-09-17T03:12:08;9.43;;;1.63;;
52858;SDS011;38721;53.098;6.596;2022-09-17T03:14:35;10.25;;;2.10;;
52858;SDS011;38721;53.098;6.596;2022-09-17T03:17:01;10.13;;;1.90;;
52858;SDS011;38721;53.098;6.596;2022-09-17T03:19:27;10.13;;;1.67;;
52858;SDS011;38721;53.098;6.596;2022-09-17T03:21:53;8.90;;;1.88;;
52858;SDS011;38721;53.098;6.596;2022-09-17T03:24:19;7.70;;;1.83;;
52858;SDS011;38721;53.098;6.596;2022-09-17T03:26:44;7.38;;;1.60;;
52858;SDS011;38721;53.098;6.596;2022-09-17T03:29:11;10.73;;;2.45;;
52858;SDS011;38721;53.098;6.596;2022-09-17T03:31:37;12.27;;;2.05;;
52858;SDS011;38721;53.098;6.596;2022-09-17T03:34:03;11.50;;;2.13;;
52858;SDS011;38721;53.098;6.596;2022-09-17T03:36:29;8.40;;;2.05;;
52858;SDS011;38721;53.098;6.596;2022-09-17T03:38:55;13.23;;;2.28;;
52858;SDS011;38721;53.098;6.596;2022-09-17T03:41:21;5.88;;;1.30;;
52858;SDS011;38721;53.098;6.596;2022-09-17T03:43:47;8.13;;;1.80;;
52858;SDS011;38721;53.098;6.596;2022-09-17T03:46:13;5.90;;;1.70;;
52858;SDS011;38721;53.098;6.596;2022-09-17T03:48:39;7.13;;;1.80;;
52858;SDS011;38721;53.098;6.596;2022-09-17T03:51:07;10.43;;;2.42;;
52858;SDS011;38721;53.098;6.596;2022-09-17T03:53:33;6.97;;;2.13;;
52858;SDS011;38721;53.098;6.596;2022-09-17T03:55:59;4.47;;;1.55;;
52858;SDS011;38721;53.098;6.596;2022-09-17T03:58:27;10.15;;;1.83;;
52858;SDS011;38721;53.098;6.596;2022-09-17T04:00:53;10.63;;;2.03;;
52858;SDS011;38721;53.098;6.596;2022-09-17T04:03:22;11.55;;;2.05;;
52858;SDS011;38721;53.098;6.596;2022-09-17T04:05:48;13.35;;;2.80;;
52858;SDS011;38721;53.098;6.596;2022-09-17T04:08:15;9.52;;;2.22;;
52858;SDS011;38721;53.098;6.596;2022-09-17T04:10:42;12.25;;;3.15;;
52858;SDS011;38721;53.098;6.596;2022-09-17T04:13:08;11.80;;;2.22;;
52858;SDS011;38721;53.098;6.596;2022-09-17T04:15:34;11.05;;;2.15;;
52858;SDS011;38721;53.098;6.596;2022-09-17T04:18:00;9.82;;;2.17;;
52858;SDS011;38721;53.098;6.596;2022-09-17T04:20:26;12.75;;;2.30;;
52858;SDS011;38721;53.098;6.596;2022-09-17T04:22:55;15.32;;;2.40;;
52858;SDS011;38721;53.098;6.596;2022-09-17T04:25:21;15.95;;;2.40;;
52858;SDS011;38721;53.098;6.596;2022-09-17T04:27:47;10.93;;;2.25;;
52858;SDS011;38721;53.098;6.596;2022-09-17T04:30:13;11.23;;;2.58;;
52858;SDS011;38721;53.098;6.596;2022-09-17T04:32:39;14.45;;;2.70;;
52858;SDS011;38721;53.098;6.596;2022-09-17T04:35:05;10.70;;;2.20;;
52858;SDS011;38721;53.098;6.596;2022-09-17T04:37:31;8.68;;;2.08;;
52858;SDS011;38721;53.098;6.596;2022-09-17T04:39:58;12.35;;;2.63;;
52858;SDS011;38721;53.098;6.596;2022-09-17T04:42:23;12.85;;;2.42;;
52858;SDS011;38721;53.098;6.596;2022-09-17T04:44:49;11.32;;;2.08;;
52858;SDS011;38721;53.098;6.596;2022-09-17T04:47:15;13.95;;;2.50;;
52858;SDS011;38721;53.098;6.596;2022-09-17T04:49:41;15.40;;;2.80;;
52858;SDS011;38721;53.098;6.596;2022-09-17T04:52:06;7.95;;;1.90;;
52858;SDS011;38721;53.098;6.596;2022-09-17T04:54:32;12.05;;;2.47;;
52858;SDS011;38721;53.098;6.596;2022-09-17T04:56:58;11.70;;;2.10;;
52858;SDS011;38721;53.098;6.596;2022-09-17T04:59:26;14.07;;;2.30;;
52858;SDS011;38721;53.098;6.596;2022-09-17T05:01:52;9.82;;;2.58;;
52858;SDS011;38721;53.098;6.596;2022-09-17T05:04:17;11.05;;;2.13;;
52858;SDS011;38721;53.098;6.596;2022-09-17T05:06:43;10.10;;;2.65;;
52858;SDS011;38721;53.098;6.596;2022-09-17T05:09:09;9.60;;;1.90;;
52858;SDS011;38721;53.098;6.596;2022-09-17T05:11:35;13.65;;;2.10;;
52858;SDS011;38721;53.098;6.596;2022-09-17T05:14:00;10.27;;;1.73;;
52858;SDS011;38721;53.098;6.596;2022-09-17T05:16:26;9.30;;;1.60;;
52858;SDS011;38721;53.098;6.596;2022-09-17T05:18:52;13.27;;;2.40;;
52858;SDS011;38721;53.098;6.596;2022-09-17T05:21:18;10.00;;;2.45;;
52858;SDS011;38721;53.098;6.596;2022-09-17T05:23:44;11.90;;;2.10;;
52858;SDS011;38721;53.098;6.596;2022-09-17T05:26:10;10.15;;;2.53;;
52858;SDS011;38721;53.098;6.596;2022-09-17T05:28:36;14.00;;;2.45;;
52858;SDS011;38721;53.098;6.596;2022-09-17T05:31:02;18.80;;;2.47;;
52858;SDS011;38721;53.098;6.596;2022-09-17T05:33:28;11.75;;;1.77;;
52858;SDS011;38721;53.098;6.596;2022-09-17T05:35:53;10.55;;;1.80;;
52858;SDS011;38721;53.098;6.596;2022-09-17T05:38:19;12.57;;;2.58;;
52858;SDS011;38721;53.098;6.596;2022-09-17T05:40:45;11.55;;;2.15;;
52858;SDS011;38721;53.098;6.596;2022-09-17T05:43:13;14.23;;;2.45;;
52858;SDS011;38721;53.098;6.596;2022-09-17T05:45:39;19.73;;;2.83;;
52858;SDS011;38721;53.098;6.596;2022-09-17T05:48:06;11.30;;;2.80;;
52858;SDS011;38721;53.098;6.596;2022-09-17T05:50:38;4.55;;;1.20;;
52858;SDS011;38721;53.098;6.596;2022-09-17T05:53:06;9.05;;;1.77;;
52858;SDS011;38721;53.098;6.596;2022-09-17T05:55:33;5.18;;;1.25;;
52858;SDS011;38721;53.098;6.596;2022-09-17T05:57:59;5.57;;;1.30;;
52858;SDS011;38721;53.098;6.596;2022-09-17T06:00:32;11.00;;;1.77;;
52858;SDS011;38721;53.098;6.596;2022-09-17T06:03:03;8.48;;;1.52;;
52858;SDS011;38721;53.098;6.596;2022-09-17T06:05:29;6.55;;;1.55;;
52858;SDS011;38721;53.098;6.596;2022-09-17T06:07:55;6.05;;;1.05;;
52858;SDS011;38721;53.098;6.596;2022-09-17T06:10:21;7.30;;;1.40;;
52858;SDS011;38721;53.098;6.596;2022-09-17T06:12:46;6.60;;;1.17;;
52858;SDS011;38721;53.098;6.596;2022-09-17T06:15:12;4.40;;;1.10;;
52858;SDS011;38721;53.098;6.596;2022-09-17T06:17:41;3.95;;;1.13;;
52858;SDS011;38721;53.098;6.596;2022-09-17T06:20:07;3.90;;;0.93;;
52858;SDS011;38721;53.098;6.596;2022-09-17T06:22:34;4.43;;;1.15;;
52858;SDS011;38721;53.098;6.596;2022-09-17T06:25:02;6.65;;;1.65;;
52858;SDS011;38721;53.098;6.596;2022-09-17T06:27:29;4.47;;;1.20;;
52858;SDS011;38721;53.098;6.596;2022-09-17T06:29:56;6.80;;;1.38;;
52858;SDS011;38721;53.098;6.596;2022-09-17T06:32:21;7.25;;;1.20;;
52858;SDS011;38721;53.098;6.596;2022-09-17T06:34:47;9.45;;;2.20;;
52858;SDS011;38721;53.098;6.596;2022-09-17T06:37:13;5.85;;;1.08;;
52858;SDS011;38721;53.098;6.596;2022-09-17T06:39:39;8.38;;;1.40;;
52858;SDS011;38721;53.098;6.596;2022-09-17T06:42:05;7.35;;;1.20;;
52858;SDS011;38721;53.098;6.596;2022-09-17T06:44:31;7.20;;;1.20;;
52858;SDS011;38721;53.098;6.596;2022-09-17T06:46:57;5.05;;;1.30;;
52858;SDS011;38721;53.098;6.596;2022-09-17T06:49:22;4.15;;;1.00;;
52858;SDS011;38721;53.098;6.596;2022-09-17T06:51:48;7.22;;;1.40;;
52858;SDS011;38721;53.098;6.596;2022-09-17T06:54:14;3.28;;;1.10;;
52858;SDS011;38721;53.098;6.596;2022-09-17T06:56:40;4.82;;;1.48;;
52858;SDS011;38721;53.098;6.596;2022-09-17T06:59:06;5.38;;;1.20;;
52858;SDS011;38721;53.098;6.596;2022-09-17T07:01:31;7.03;;;1.55;;
52858;SDS011;38721;53.098;6.596;2022-09-17T07:03:57;8.77;;;1.40;;
52858;SDS011;38721;53.098;6.596;2022-09-17T07:06:23;6.25;;;1.20;;
52858;SDS011;38721;53.098;6.596;2022-09-17T07:08:49;6.10;;;1.17;;
52858;SDS011;38721;53.098;6.596;2022-09-17T07:11:14;7.00;;;1.50;;
52858;SDS011;38721;53.098;6.596;2022-09-17T07:13:40;6.05;;;1.35;;
52858;SDS011;38721;53.098;6.596;2022-09-17T07:16:06;6.10;;;1.40;;
52858;SDS011;38721;53.098;6.596;2022-09-17T07:18:32;7.32;;;1.50;;
52858;SDS011;38721;53.098;6.596;2022-09-17T07:20:59;10.82;;;1.88;;
52858;SDS011;38721;53.098;6.596;2022-09-17T07:23:29;8.30;;;1.55;;
52858;SDS011;38721;53.098;6.596;2022-09-17T07:25:58;7.25;;;1.90;;
52858;SDS011;38721;53.098;6.596;2022-09-17T07:28:25;8.52;;;1.17;;
52858;SDS011;38721;53.098;6.596;2022-09-17T07:30:55;6.47;;;1.27;;
52858;SDS011;38721;53.098;6.596;2022-09-17T07:33:23;8.18;;;1.60;;
52858;SDS011;38721;53.098;6.596;2022-09-17T07:38:21;7.47;;;1.60;;
52858;SDS011;38721;53.098;6.596;2022-09-17T07:40:54;10.40;;;2.00;;
52858;SDS011;38721;53.098;6.596;2022-09-17T07:43:22;9.32;;;1.75;;
52858;SDS011;38721;53.098;6.596;2022-09-17T07:45:51;8.00;;;1.45;;
52858;SDS011;38721;53.098;6.596;2022-09-17T07:48:18;7.82;;;1.67;;
52858;SDS011;38721;53.098;6.596;2022-09-17T07:50:45;10.30;;;1.52;;
52858;SDS011;38721;53.098;6.596;2022-09-17T07:53:11;6.88;;;1.40;;
52858;SDS011;38721;53.098;6.596;2022-09-17T07:55:37;7.35;;;1.85;;
52858;SDS011;38721;53.098;6.596;2022-09-17T07:58:06;8.10;;;1.50;;
52858;SDS011;38721;53.098;6.596;2022-09-17T08:00:32;9.95;;;1.60;;
52858;SDS011;38721;53.098;6.596;2022-09-17T08:02:58;8.73;;;1.55;;
52858;SDS011;38721;53.098;6.596;2022-09-17T08:05:25;4.07;;;1.25;;
52858;SDS011;38721;53.098;6.596;2022-09-17T08:07:51;5.97;;;1.55;;
52858;SDS011;38721;53.098;6.596;2022-09-17T08:10:18;8.60;;;1.67;;
52858;SDS011;38721;53.098;6.596;2022-09-17T08:12:47;12.02;;;1.80;;
52858;SDS011;38721;53.098;6.596;2022-09-17T08:15:16;8.25;;;1.80;;
52858;SDS011;38721;53.098;6.596;2022-09-17T08:17:43;2.60;;;1.25;;
52858;SDS011;38721;53.098;6.596;2022-09-17T08:20:10;3.88;;;1.10;;
52858;SDS011;38721;53.098;6.596;2022-09-17T08:22:37;3.95;;;1.15;;
52858;SDS011;38721;53.098;6.596;2022-09-17T08:25:03;5.10;;;1.60;;
52858;SDS011;38721;53.098;6.596;2022-09-17T08:27:32;5.68;;;1.25;;
52858;SDS011;38721;53.098;6.596;2022-09-17T08:29:58;8.02;;;1.27;;
52858;SDS011;38721;53.098;6.596;2022-09-17T08:32:24;5.75;;;1.25;;
52858;SDS011;38721;53.098;6.596;2022-09-17T08:34:55;10.75;;;1.60;;
52858;SDS011;38721;53.098;6.596;2022-09-17T08:37:21;10.48;;;1.67;;
52858;SDS011;38721;53.098;6.596;2022-09-17T08:39:46;5.57;;;1.55;;
52858;SDS011;38721;53.098;6.596;2022-09-17T08:42:32;6.68;;;1.30;;
52858;SDS011;38721;53.098;6.596;2022-09-17T08:45:08;4.18;;;1.45;;
52858;SDS011;38721;53.098;6.596;2022-09-17T08:47:38;5.72;;;1.10;;
52858;SDS011;38721;53.098;6.596;2022-09-17T08:53:25;8.48;;;1.60;;
52858;SDS011;38721;53.098;6.596;2022-09-17T08:55:58;11.23;;;1.52;;
52858;SDS011;38721;53.098;6.596;2022-09-17T09:01:23;10.40;;;1.30;;
52858;SDS011;38721;53.098;6.596;2022-09-17T09:06:44;11.00;;;1.60;;
52858;SDS011;38721;53.098;6.596;2022-09-17T09:09:14;6.20;;;1.33;;
52858;SDS011;38721;53.098;6.596;2022-09-17T09:11:42;5.10;;;1.00;;
52858;SDS011;38721;53.098;6.596;2022-09-17T09:14:18;4.80;;;1.13;;
52858;SDS011;38721;53.098;6.596;2022-09-17T09:16:46;8.73;;;1.33;;
52858;SDS011;38721;53.098;6.596;2022-09-17T09:19:23;6.50;;;1.05;;
52858;SDS011;38721;53.098;6.596;2022-09-17T09:27:26;8.90;;;1.42;;
52858;SDS011;38721;53.098;6.596;2022-09-17T09:35:15;6.10;;;1.42;;
52858;SDS011;38721;53.098;6.596;2022-09-17T09:40:54;7.80;;;1.60;;
52858;SDS011;38721;53.098;6.596;2022-09-17T09:44:01;5.78;;;1.40;;
52858;SDS011;38721;53.098;6.596;2022-09-17T09:49:21;9.25;;;1.25;;
52858;SDS011;38721;53.098;6.596;2022-09-17T09:57:53;3.67;;;1.25;;
52858;SDS011;38721;53.098;6.596;2022-09-17T10:00:36;10.60;;;1.58;;
52858;SDS011;38721;53.098;6.596;2022-09-17T10:08:28;9.80;;;1.48;;
52858;SDS011;38721;53.098;6.596;2022-09-17T10:11:22;5.78;;;1.45;;
52858;SDS011;38721;53.098;6.596;2022-09-17T10:13:52;7.47;;;1.10;;
52858;SDS011;38721;53.098;6.596;2022-09-17T10:16:22;5.63;;;1.50;;
52858;SDS011;38721;53.098;6.596;2022-09-17T10:18:49;7.97;;;1.63;;
52858;SDS011;38721;53.098;6.596;2022-09-17T10:24:01;9.57;;;1.73;;
52858;SDS011;38721;53.098;6.596;2022-09-17T10:26:31;7.38;;;1.60;;
52858;SDS011;38721;53.098;6.596;2022-09-17T10:29:01;5.13;;;1.70;;
52858;SDS011;38721;53.098;6.596;2022-09-17T10:31:51;6.47;;;2.00;;
52858;SDS011;38721;53.098;6.596;2022-09-17T10:34:25;7.20;;;1.85;;
52858;SDS011;38721;53.098;6.596;2022-09-17T10:36:51;11.27;;;1.98;;
52858;SDS011;38721;53.098;6.596;2022-09-17T10:41:56;12.20;;;2.00;;
52858;SDS011;38721;53.098;6.596;2022-09-17T10:44:31;9.27;;;2.05;;
52858;SDS011;38721;53.098;6.596;2022-09-17T10:47:41;9.88;;;2.38;;
52858;SDS011;38721;53.098;6.596;2022-09-17T10:52:26;9.90;;;2.00;;
52858;SDS011;38721;53.098;6.596;2022-09-17T11:03:16;8.52;;;1.75;;
52858;SDS011;38721;53.098;6.596;2022-09-17T11:12:00;9.73;;;1.80;;
52858;SDS011;38721;53.098;6.596;2022-09-17T11:25:49;7.82;;;1.67;;
52858;SDS011;38721;53.098;6.596;2022-09-17T11:39:27;10.88;;;2.00;;
52858;SDS011;38721;53.098;6.596;2022-09-17T11:41:59;7.72;;;1.90;;
52858;SDS011;38721;53.098;6.596;2022-09-17T11:44:31;10.82;;;1.83;;
52858;SDS011;38721;53.098;6.596;2022-09-17T11:47:08;8.25;;;1.70;;
52858;SDS011;38721;53.098;6.596;2022-09-17T11:49:41;11.85;;;1.92;;
52858;SDS011;38721;53.098;6.596;2022-09-17T11:52:21;12.43;;;2.03;;
52858;SDS011;38721;53.098;6.596;2022-09-17T11:54:58;9.90;;;2.33;;
52858;SDS011;38721;53.098;6.596;2022-09-17T11:57:37;9.77;;;2.03;;
52858;SDS011;38721;53.098;6.596;2022-09-17T12:00:15;7.38;;;1.45;;
52858;SDS011;38721;53.098;6.596;2022-09-17T12:02:51;7.90;;;2.47;;
52858;SDS011;38721;53.098;6.596;2022-09-17T12:05:30;5.20;;;1.40;;
52858;SDS011;38721;53.098;6.596;2022-09-17T12:13:41;6.85;;;1.75;;
52858;SDS011;38721;53.098;6.596;2022-09-17T12:21:28;13.20;;;2.53;;
52858;SDS011;38721;53.098;6.596;2022-09-17T12:35:06;12.00;;;2.20;;
52858;SDS011;38721;53.098;6.596;2022-09-17T12:40:27;8.80;;;1.92;;
52858;SDS011;38721;53.098;6.596;2022-09-17T12:48:31;4.57;;;1.33;;
52858;SDS011;38721;53.098;6.596;2022-09-17T12:56:55;8.23;;;1.75;;
52858;SDS011;38721;53.098;6.596;2022-09-17T12:59:30;15.65;;;2.30;;
52858;SDS011;38721;53.098;6.596;2022-09-17T13:02:14;12.15;;;2.28;;
52858;SDS011;38721;53.098;6.596;2022-09-17T13:10:01;8.25;;;1.88;;
52858;SDS011;38721;53.098;6.596;2022-09-17T13:12:53;12.00;;;2.15;;
52858;SDS011;38721;53.098;6.596;2022-09-17T13:18:51;13.68;;;2.60;;
52858;SDS011;38721;53.098;6.596;2022-09-17T13:24:24;8.75;;;2.28;;
52858;SDS011;38721;53.098;6.596;2022-09-17T13:26:53;7.35;;;2.03;;
52858;SDS011;38721;53.098;6.596;2022-09-17T13:37:40;14.50;;;2.90;;
52858;SDS011;38721;53.098;6.596;2022-09-17T13:40:25;11.77;;;2.38;;
52858;SDS011;38721;53.098;6.596;2022-09-17T13:45:27;7.30;;;1.77;;
52858;SDS011;38721;53.098;6.596;2022-09-17T13:48:02;5.70;;;1.88;;
52858;SDS011;38721;53.098;6.596;2022-09-17T13:53:19;7.43;;;1.70;;
52858;SDS011;38721;53.098;6.596;2022-09-17T13:55:50;6.90;;;1.75;;
52858;SDS011;38721;53.098;6.596;2022-09-17T14:01:04;13.85;;;2.92;;
52858;SDS011;38721;53.098;6.596;2022-09-17T14:19:17;9.90;;;1.85;;
52858;SDS011;38721;53.098;6.596;2022-09-17T14:21:58;11.13;;;1.60;;
52858;SDS011;38721;53.098;6.596;2022-09-17T14:24:39;6.22;;;1.40;;
52858;SDS011;38721;53.098;6.596;2022-09-17T14:27:31;9.02;;;2.08;;
52858;SDS011;38721;53.098;6.596;2022-09-17T14:30:21;4.38;;;1.30;;
52858;SDS011;38721;53.098;6.596;2022-09-17T14:35:36;8.55;;;1.95;;
52858;SDS011;38721;53.098;6.596;2022-09-17T14:41:13;10.48;;;2.60;;
52858;SDS011;38721;53.098;6.596;2022-09-17T14:46:30;10.50;;;1.77;;
52858;SDS011;38721;53.098;6.596;2022-09-17T14:49:36;6.68;;;1.42;;
52858;SDS011;38721;53.098;6.596;2022-09-17T14:52:01;10.82;;;1.80;;
52858;SDS011;38721;53.098;6.596;2022-09-17T14:55:07;9.88;;;1.63;;
52858;SDS011;38721;53.098;6.596;2022-09-17T14:57:43;5.88;;;1.40;;
52858;SDS011;38721;53.098;6.596;2022-09-17T15:00:18;4.28;;;1.40;;
52858;SDS011;38721;53.098;6.596;2022-09-17T15:02:49;10.18;;;1.90;;
52858;SDS011;38721;53.098;6.596;2022-09-17T15:05:21;4.75;;;1.23;;
52858;SDS011;38721;53.098;6.596;2022-09-17T15:07:50;6.10;;;1.45;;
52858;SDS011;38721;53.098;6.596;2022-09-17T15:10:29;9.10;;;1.55;;
52858;SDS011;38721;53.098;6.596;2022-09-17T15:12:54;9.15;;;1.73;;
52858;SDS011;38721;53.098;6.596;2022-09-17T15:15:23;8.27;;;1.73;;
52858;SDS011;38721;53.098;6.596;2022-09-17T15:17:51;5.65;;;1.23;;
52858;SDS011;38721;53.098;6.596;2022-09-17T15:20:22;6.80;;;1.73;;
52858;SDS011;38721;53.098;6.596;2022-09-17T15:25:46;9.77;;;1.80;;
52858;SDS011;38721;53.098;6.596;2022-09-17T15:28:22;7.20;;;1.35;;
52858;SDS011;38721;53.098;6.596;2022-09-17T15:30:55;5.18;;;1.60;;
52858;SDS011;38721;53.098;6.596;2022-09-17T15:33:21;5.95;;;1.35;;
52858;SDS011;38721;53.098;6.596;2022-09-17T15:38:58;8.73;;;1.55;;
52858;SDS011;38721;53.098;6.596;2022-09-17T15:41:27;6.40;;;1.42;;
52858;SDS011;38721;53.098;6.596;2022-09-17T15:43:53;5.72;;;1.75;;
52858;SDS011;38721;53.098;6.596;2022-09-17T15:46:29;5.35;;;1.48;;
52858;SDS011;38721;53.098;6.596;2022-09-17T15:48:59;5.35;;;1.67;;
52858;SDS011;38721;53.098;6.596;2022-09-17T15:51:27;6.07;;;1.42;;
52858;SDS011;38721;53.098;6.596;2022-09-17T15:53:56;7.55;;;1.77;;
52858;SDS011;38721;53.098;6.596;2022-09-17T15:56:29;3.85;;;1.00;;
52858;SDS011;38721;53.098;6.596;2022-09-17T16:08:58;7.07;;;1.40;;
52858;SDS011;38721;53.098;6.596;2022-09-17T16:11:29;7.17;;;1.60;;
52858;SDS011;38721;53.098;6.596;2022-09-17T16:13:56;10.07;;;1.80;;
52858;SDS011;38721;53.098;6.596;2022-09-17T16:18:52;6.22;;;1.48;;
52858;SDS011;38721;53.098;6.596;2022-09-17T16:21:18;6.15;;;1.70;;
52858;SDS011;38721;53.098;6.596;2022-09-17T16:23:47;5.85;;;1.60;;
52858;SDS011;38721;53.098;6.596;2022-09-17T16:26:13;11.75;;;1.98;;
52858;SDS011;38721;53.098;6.596;2022-09-17T16:28:47;10.40;;;1.83;;
52858;SDS011;38721;53.098;6.596;2022-09-17T16:31:17;10.27;;;1.70;;
52858;SDS011;38721;53.098;6.596;2022-09-17T16:33:43;7.97;;;1.85;;
52858;SDS011;38721;53.098;6.596;2022-09-17T16:36:09;10.20;;;1.70;;
52858;SDS011;38721;53.098;6.596;2022-09-17T16:38:35;9.40;;;2.15;;
52858;SDS011;38721;53.098;6.596;2022-09-17T16:41:04;8.88;;;1.80;;
52858;SDS011;38721;53.098;6.596;2022-09-17T16:43:30;10.30;;;2.22;;
52858;SDS011;38721;53.098;6.596;2022-09-17T16:46:01;6.65;;;1.90;;
52858;SDS011;38721;53.098;6.596;2022-09-17T16:48:29;7.78;;;1.63;;
52858;SDS011;38721;53.098;6.596;2022-09-17T16:50:55;6.85;;;1.20;;
52858;SDS011;38721;53.098;6.596;2022-09-17T16:53:21;7.75;;;1.70;;
52858;SDS011;38721;53.098;6.596;2022-09-17T16:55:47;6.93;;;1.48;;
52858;SDS011;38721;53.098;6.596;2022-09-17T16:58:12;6.05;;;1.10;;
52858;SDS011;38721;53.098;6.596;2022-09-17T17:00:40;6.05;;;1.30;;
52858;SDS011;38721;53.098;6.596;2022-09-17T17:03:08;5.68;;;1.15;;
52858;SDS011;38721;53.098;6.596;2022-09-17T17:05:36;6.18;;;1.23;;
52858;SDS011;38721;53.098;6.596;2022-09-17T17:08:02;5.45;;;1.33;;
52858;SDS011;38721;53.098;6.596;2022-09-17T17:10:29;4.95;;;1.10;;
52858;SDS011;38721;53.098;6.596;2022-09-17T17:12:55;8.68;;;1.30;;
52858;SDS011;38721;53.098;6.596;2022-09-17T17:15:21;6.90;;;1.50;;
52858;SDS011;38721;53.098;6.596;2022-09-17T17:17:47;5.20;;;0.82;;
52858;SDS011;38721;53.098;6.596;2022-09-17T17:20:14;4.80;;;1.20;;
52858;SDS011;38721;53.098;6.596;2022-09-17T17:22:41;8.95;;;1.77;;
52858;SDS011;38721;53.098;6.596;2022-09-17T17:25:08;7.15;;;1.52;;
52858;SDS011;38721;53.098;6.596;2022-09-17T17:27:36;6.00;;;1.90;;
52858;SDS011;38721;53.098;6.596;2022-09-17T17:30:03;7.65;;;1.20;;
52858;SDS011;38721;53.098;6.596;2022-09-17T17:32:32;8.48;;;1.83;;
52858;SDS011;38721;53.098;6.596;2022-09-17T17:34:59;6.40;;;1.42;;
52858;SDS011;38721;53.098;6.596;2022-09-17T17:37:25;3.58;;;1.52;;
52858;SDS011;38721;53.098;6.596;2022-09-17T17:39:51;6.20;;;1.40;;
52858;SDS011;38721;53.098;6.596;2022-09-17T17:42:18;7.25;;;1.95;;
52858;SDS011;38721;53.098;6.596;2022-09-17T17:44:44;7.95;;;1.90;;
52858;SDS011;38721;53.098;6.596;2022-09-17T17:47:09;7.60;;;1.50;;
52858;SDS011;38721;53.098;6.596;2022-09-17T17:49:35;8.00;;;1.25;;
52858;SDS011;38721;53.098;6.596;2022-09-17T17:52:01;6.53;;;1.25;;
52858;SDS011;38721;53.098;6.596;2022-09-17T17:54:27;6.55;;;1.65;;
52858;SDS011;38721;53.098;6.596;2022-09-17T17:56:56;4.63;;;0.95;;
52858;SDS011;38721;53.098;6.596;2022-09-17T17:59:21;7.80;;;1.25;;
52858;SDS011;38721;53.098;6.596;2022-09-17T18:01:47;5.80;;;1.48;;
52858;SDS011;38721;53.098;6.596;2022-09-17T18:04:13;11.80;;;1.75;;
52858;SDS011;38721;53.098;6.596;2022-09-17T18:06:39;7.55;;;1.40;;
52858;SDS011;38721;53.098;6.596;2022-09-17T18:09:05;8.75;;;1.50;;
52858;SDS011;38721;53.098;6.596;2022-09-17T18:11:32;9.45;;;2.70;;
52858;SDS011;38721;53.098;6.596;2022-09-17T18:13:58;13.73;;;2.03;;
52858;SDS011;38721;53.098;6.596;2022-09-17T18:16:27;8.40;;;1.70;;
52858;SDS011;38721;53.098;6.596;2022-09-17T18:18:56;8.82;;;1.63;;
52858;SDS011;38721;53.098;6.596;2022-09-17T18:21:22;12.45;;;1.70;;
52858;SDS011;38721;53.098;6.596;2022-09-17T18:23:49;11.10;;;1.92;;
52858;SDS011;38721;53.098;6.596;2022-09-17T18:26:17;7.57;;;2.05;;
52858;SDS011;38721;53.098;6.596;2022-09-17T18:28:50;9.82;;;1.67;;
52858;SDS011;38721;53.098;6.596;2022-09-17T18:31:24;10.73;;;1.70;;
52858;SDS011;38721;53.098;6.596;2022-09-17T18:33:59;8.82;;;2.00;;
52858;SDS011;38721;53.098;6.596;2022-09-17T18:36:27;5.95;;;1.65;;
52858;SDS011;38721;53.098;6.596;2022-09-17T18:38:55;8.82;;;2.20;;
52858;SDS011;38721;53.098;6.596;2022-09-17T18:41:25;13.30;;;2.17;;
52858;SDS011;38721;53.098;6.596;2022-09-17T18:43:55;8.45;;;2.10;;
52858;SDS011;38721;53.098;6.596;2022-09-17T18:46:22;12.35;;;1.67;;
52858;SDS011;38721;53.098;6.596;2022-09-17T18:48:54;6.82;;;1.60;;
52858;SDS011;38721;53.098;6.596;2022-09-17T18:51:21;6.80;;;1.70;;
52858;SDS011;38721;53.098;6.596;2022-09-17T18:53:48;4.97;;;1.25;;
52858;SDS011;38721;53.098;6.596;2022-09-17T18:56:15;8.40;;;2.38;;
52858;SDS011;38721;53.098;6.596;2022-09-17T18:58:46;6.10;;;1.65;;